Time;durP1;ratioP1;P1;durP2;ratioP2;P2;SDS_P1;SDS_P2;PMS_P1;PMS_P2;Temp;Humidity;BMP_temperature;BMP_pressure;BME280_temperature;BME280_humidity;BME280_pressure;Samples;Min_cycle;Max_cycle;Signal;HPM_P1;HPM_P2
2022/05/22 00:00:22;;;;;;;1.53;1.30;;;8.80;99.90;8.00;99786;;;;598092;239;24046;-83
2022/05/22 00:02:46;;;;;;;1.73;1.63;;;8.80;99.90;8.00;99787;;;;597690;239;24078;-80
2022/05/22 00:05:17;;;;;;;1.67;1.57;;;8.80;99.90;8.00;99777;;;;598467;235;24048;-80
2022/05/22 00:07:42;;;;;;;3.37;1.23;;;8.70;99.90;7.90;99781;;;;598004;239;24046;-79
2022/05/22 00:10:09;;;;;;;1.00;0.97;;;8.70;99.90;7.90;99789;;;;598054;240;24046;-78
2022/05/22 00:12:40;;;;;;;2.70;1.37;;;8.70;99.90;7.90;99799;;;;598082;239;24069;-78
2022/05/22 00:15:09;;;;;;;1.30;1.10;;;8.70;99.90;7.90;99787;;;;597573;236;24046;-78
2022/05/22 00:17:37;;;;;;;1.40;1.30;;;8.70;99.90;7.90;99784;;;;596500;240;24064;-79
2022/05/22 00:20:04;;;;;;;1.27;1.27;;;8.70;99.90;7.90;99784;;;;598644;238;24047;-80
2022/05/22 00:22:29;;;;;;;1.87;1.20;;;8.60;99.90;7.80;99781;;;;599086;235;24044;-77
2022/05/22 00:24:57;;;;;;;1.40;1.30;;;8.60;99.90;7.80;99774;;;;598942;238;24060;-77
2022/05/22 00:27:28;;;;;;;1.97;1.87;;;8.60;99.90;7.80;99786;;;;598425;235;24053;-77
2022/05/22 00:29:53;;;;;;;2.00;1.63;;;8.60;99.90;7.80;99776;;;;597665;240;24062;-77
2022/05/22 00:32:20;;;;;;;1.70;1.60;;;8.60;99.90;7.80;99779;;;;598313;238;24048;-76
2022/05/22 00:34:48;;;;;;;1.33;1.23;;;8.60;99.90;7.80;99779;;;;598676;238;24091;-79
2022/05/22 00:37:20;;;;;;;1.60;1.43;;;8.60;99.90;7.80;99776;;;;598582;238;24108;-80
2022/05/22 00:39:44;;;;;;;1.90;1.80;;;8.50;99.90;7.80;99771;;;;592359;240;34870;-79
2022/05/22 00:42:18;;;;;;;1.40;1.40;;;8.50;99.90;7.70;99773;;;;598302;238;24056;-78
2022/05/22 00:44:46;;;;;;;1.13;1.10;;;8.50;99.90;7.70;99773;;;;598371;238;24074;-81
2022/05/22 00:47:16;;;;;;;1.10;1.10;;;8.50;99.90;7.70;99769;;;;598500;235;24065;-80
2022/05/22 00:49:43;;;;;;;1.63;1.43;;;8.50;99.90;7.70;99768;;;;598270;240;24048;-80
2022/05/22 00:52:24;;;;;;;1.67;1.10;;;8.50;99.90;7.70;99766;;;;598457;240;24077;-76
2022/05/22 00:55:00;;;;;;;1.47;1.30;;;8.50;99.90;7.70;99766;;;;598354;240;24037;-79
2022/05/22 00:57:43;;;;;;;1.10;1.10;;;8.40;99.90;7.60;99772;;;;598465;235;24056;-78
2022/05/22 01:00:14;;;;;;;1.67;1.57;;;8.40;99.90;7.50;99773;;;;595025;240;24086;-76
2022/05/22 01:05:28;;;;;;;2.00;1.30;;;8.30;99.90;7.50;99753;;;;596978;240;24051;-76
2022/05/22 01:07:57;;;;;;;2.20;1.43;;;8.30;99.90;7.50;99754;;;;597013;235;24094;-76
2022/05/22 01:10:24;;;;;;;1.40;1.30;;;8.20;99.90;7.40;99754;;;;597075;236;24060;-76
2022/05/22 01:12:52;;;;;;;2.30;2.10;;;8.20;99.90;7.50;99764;;;;591816;235;34891;-77
2022/05/22 01:15:20;;;;;;;1.80;1.67;;;8.20;99.90;7.40;99754;;;;597240;238;24074;-77
2022/05/22 01:17:47;;;;;;;2.23;1.53;;;8.20;99.90;7.40;99752;;;;597123;238;24157;-76
2022/05/22 01:20:15;;;;;;;3.47;1.83;;;8.20;99.90;7.40;99760;;;;597032;239;24070;-76
2022/05/22 01:22:45;;;;;;;3.27;1.63;;;8.20;99.90;7.40;99757;;;;597019;238;24070;-77
2022/05/22 01:25:13;;;;;;;1.30;1.20;;;8.20;99.90;7.40;99747;;;;597026;238;24102;-77
2022/05/22 01:27:41;;;;;;;2.03;1.27;;;8.10;99.90;7.40;99758;;;;597004;238;24064;-77
2022/05/22 01:30:17;;;;;;;3.70;1.60;;;8.10;99.90;7.40;99765;;;;596985;238;24049;-76
2022/05/22 01:32:45;;;;;;;1.13;1.10;;;8.10;99.90;7.40;99762;;;;598146;238;24048;-78
2022/05/22 01:35:19;;;;;;;3.60;1.67;;;8.10;99.90;7.30;99770;;;;598209;235;24101;-76
2022/05/22 01:37:48;;;;;;;1.77;1.43;;;8.10;99.90;7.30;99775;;;;598106;238;24063;-77
2022/05/22 01:40:18;;;;;;;1.23;1.23;;;8.10;99.90;7.30;99782;;;;597728;238;24037;-77
2022/05/22 01:42:46;;;;;;;3.97;1.80;;;8.10;99.90;7.20;99782;;;;597075;240;24053;-78
2022/05/22 01:45:10;;;;;;;1.70;1.60;;;8.00;99.90;7.20;99781;;;;597641;240;24032;-77
2022/05/22 01:47:42;;;;;;;1.73;1.60;;;8.00;99.90;7.20;99781;;;;597613;235;24081;-77
2022/05/22 01:50:10;;;;;;;1.50;1.40;;;8.00;99.90;7.20;99781;;;;598133;240;24122;-79
2022/05/22 01:52:38;;;;;;;1.70;1.33;;;8.00;99.90;7.20;99785;;;;598040;240;24079;-83
2022/05/22 01:55:02;;;;;;;1.20;1.20;;;7.90;99.90;7.10;99783;;;;597589;240;24060;-78
2022/05/22 01:57:31;;;;;;;1.20;1.20;;;7.90;99.90;7.10;99785;;;;599202;238;24065;-81
2022/05/22 01:59:59;;;;;;;1.27;1.10;;;7.90;99.90;7.10;99784;;;;598795;235;24054;-80
2022/05/22 02:02:31;;;;;;;1.00;1.00;;;7.90;99.90;7.10;99788;;;;598847;238;24057;-80
2022/05/22 02:04:55;;;;;;;2.13;0.80;;;7.80;99.90;7.00;99781;;;;598421;240;24073;-79
2022/05/22 02:10:11;;;;;;;4.07;1.67;;;7.80;99.90;7.10;99788;;;;586661;245;24032;-80
2022/05/22 02:12:42;;;;;;;2.33;1.60;;;7.80;99.90;7.10;99802;;;;586609;245;24088;-80
2022/05/22 02:15:10;;;;;;;1.37;1.27;;;7.80;99.90;7.10;99793;;;;589746;240;24089;-81
2022/05/22 02:17:36;;;;;;;1.30;1.13;;;7.80;99.90;7.10;99796;;;;597547;240;24065;-82
2022/05/22 02:20:07;;;;;;;1.40;1.30;;;7.90;99.90;7.10;99788;;;;598216;235;24100;-82
2022/05/22 02:22:33;;;;;;;1.50;1.23;;;7.90;99.90;7.10;99784;;;;598067;240;24038;-81
2022/05/22 02:25:01;;;;;;;1.97;1.87;;;7.90;99.90;7.10;99777;;;;598467;238;24056;-80
2022/05/22 02:27:28;;;;;;;4.00;1.83;;;7.80;99.90;7.10;99777;;;;593010;236;34942;-77
2022/05/22 02:30:03;;;;;;;2.07;1.60;;;7.80;99.90;7.00;99785;;;;598291;238;25374;-79
2022/05/22 02:32:29;;;;;;;2.00;1.63;;;7.80;99.90;7.00;99786;;;;597703;240;24060;-76
2022/05/22 02:34:54;;;;;;;2.53;1.20;;;7.80;99.90;7.00;99789;;;;597616;240;24092;-79
2022/05/22 02:37:23;;;;;;;1.98;1.87;;;7.70;99.90;7.00;99785;;;;592551;238;34899;-77
2022/05/22 02:39:51;;;;;;;2.30;1.70;;;7.80;99.90;7.00;99790;;;;597825;238;24100;-76
2022/05/22 02:42:19;;;;;;;1.50;1.40;;;7.80;99.90;7.00;99793;;;;598098;235;24098;-79
2022/05/22 02:44:47;;;;;;;1.37;1.23;;;7.80;99.90;7.00;99799;;;;599299;238;24069;-78
2022/05/22 02:47:14;;;;;;;1.33;1.23;;;7.70;99.90;7.00;99789;;;;598440;235;24081;-76
2022/05/22 02:49:44;;;;;;;2.10;1.90;;;7.80;99.90;6.90;99793;;;;597923;238;24050;-78
2022/05/22 02:52:13;;;;;;;3.57;1.40;;;7.70;99.90;6.90;99798;;;;597817;235;24042;-77
2022/05/22 02:54:41;;;;;;;1.80;1.60;;;7.70;99.90;6.90;99801;;;;597646;238;24045;-76
2022/05/22 02:57:08;;;;;;;4.07;1.50;;;7.70;99.90;7.00;99796;;;;598149;235;24038;-76
2022/05/22 02:59:36;;;;;;;2.13;1.90;;;7.70;99.90;6.90;99802;;;;597850;238;24054;-76
2022/05/22 03:02:04;;;;;;;1.30;1.20;;;7.70;99.90;7.00;99794;;;;597475;238;24049;-78
2022/05/22 03:04:32;;;;;;;2.13;1.33;;;7.70;99.90;7.00;99795;;;;597323;238;24048;-76
2022/05/22 03:07:00;;;;;;;2.50;1.20;;;7.80;99.90;7.00;99794;;;;597337;235;24088;-77
2022/05/22 03:09:28;;;;;;;1.80;1.23;;;7.80;99.90;7.10;99794;;;;597319;235;24071;-76
2022/05/22 03:11:57;;;;;;;1.60;1.50;;;7.90;99.90;7.10;99790;;;;597281;238;24060;-76
2022/05/22 03:14:24;;;;;;;3.87;2.07;;;7.90;99.90;7.10;99795;;;;597253;238;24107;-75
2022/05/22 03:16:51;;;;;;;1.60;1.50;;;8.00;99.90;7.20;99801;;;;597300;238;24053;-76
2022/05/22 03:19:19;;;;;;;1.93;1.73;;;8.00;99.90;7.30;99803;;;;597212;238;25141;-76
2022/05/22 03:21:47;;;;;;;1.87;1.70;;;8.00;99.90;7.30;99802;;;;597045;235;24079;-76
2022/05/22 03:24:16;;;;;;;1.53;1.43;;;8.10;99.90;7.30;99804;;;;597032;235;24038;-75
2022/05/22 03:26:47;;;;;;;2.00;1.60;;;8.10;99.90;7.40;99799;;;;597174;238;24041;-76
2022/05/22 03:29:17;;;;;;;1.47;1.37;;;8.20;99.90;7.50;99802;;;;596723;235;24038;-77
2022/05/22 03:31:41;;;;;;;1.97;1.77;;;8.30;99.90;7.90;99812;;;;597028;240;24069;-77
2022/05/22 03:34:12;;;;;;;3.27;1.70;;;8.60;99.90;8.90;99810;;;;597255;238;24068;-76
2022/05/22 03:36:42;;;;;;;1.33;1.20;;;9.50;99.90;10.00;99811;;;;596681;240;24051;-76
2022/05/22 03:39:08;;;;;;;1.23;1.20;;;10.50;99.90;11.00;99823;;;;597079;236;24061;-77
2022/05/22 03:41:36;;;;;;;1.50;1.40;;;11.50;99.90;11.70;99812;;;;597437;238;24099;-77
2022/05/22 03:44:05;;;;;;;1.40;1.40;;;12.40;99.90;12.50;99819;;;;597699;238;24090;-78
2022/05/22 03:46:32;;;;;;;2.00;1.40;;;13.20;99.90;13.30;99825;;;;597369;235;24080;-76
2022/05/22 03:49:02;;;;;;;1.30;1.30;;;14.00;99.90;13.90;99823;;;;597772;238;24066;-77
2022/05/22 03:51:27;;;;;;;1.87;1.47;;;14.70;99.90;14.50;99825;;;;597232;236;24148;-75
2022/05/22 03:53:59;;;;;;;1.93;1.40;;;15.30;99.90;15.10;99825;;;;597711;235;24037;-76
2022/05/22 03:56:24;;;;;;;1.47;1.47;;;16.30;99.90;15.30;99817;;;;598347;235;24124;-75
2022/05/22 03:58:55;;;;;;;1.20;1.10;;;16.30;99.90;15.70;99812;;;;598796;234;24112;-76
2022/05/22 04:01:24;;;;;;;2.05;1.85;;;16.70;99.90;16.40;99812;;;;592525;235;34866;-77
2022/05/22 04:03:49;;;;;;;1.50;1.37;;;17.30;99.90;16.90;99823;;;;597936;240;24019;-76
2022/05/22 04:06:17;;;;;;;2.63;1.70;;;17.90;99.90;17.20;99831;;;;597906;235;24030;-77
2022/05/22 04:08:47;;;;;;;1.63;1.53;;;18.30;99.90;17.60;99827;;;;598324;238;24037;-78
2022/05/22 04:11:12;;;;;;;2.27;1.63;;;18.70;99.90;18.10;99825;;;;597829;236;24150;-77
2022/05/22 04:13:42;;;;;;;1.37;1.27;;;19.20;99.90;18.50;99829;;;;598674;235;24038;-76
2022/05/22 04:16:10;;;;;;;1.13;1.13;;;19.60;99.90;18.80;99823;;;;597954;235;24037;-78
2022/05/22 04:18:41;;;;;;;2.00;1.40;;;20.00;99.20;19.10;99820;;;;598284;238;24031;-77
2022/05/22 04:21:06;;;;;;;2.10;1.40;;;20.30;97.30;19.40;99833;;;;598085;240;23047;-82
2022/05/22 04:26:20;;;;;;;1.47;1.43;;;21.00;93.10;19.90;99820;;;;598258;240;23047;-77
2022/05/22 04:28:48;;;;;;;3.60;1.40;;;21.30;91.70;20.70;99822;;;;597501;238;24053;-76
2022/05/22 04:31:16;;;;;;;1.70;1.60;;;21.80;90.10;21.20;99826;;;;597492;235;23059;-76
2022/05/22 04:33:43;;;;;;;2.23;1.53;;;22.30;85.30;21.30;99829;;;;598118;238;24034;-82
2022/05/22 04:36:12;;;;;;;1.37;1.37;;;23.00;79.90;21.70;99827;;;;597580;238;24059;-77
2022/05/22 04:38:40;;;;;;;1.97;1.87;;;23.00;79.80;22.10;99828;;;;597574;238;24079;-76
2022/05/22 04:41:09;;;;;;;2.07;1.50;;;23.40;77.50;22.50;99839;;;;597360;238;24085;-77
2022/05/22 04:43:37;;;;;;;2.50;1.40;;;23.90;75.40;23.10;99839;;;;598166;238;24063;-79
2022/05/22 04:46:08;;;;;;;2.33;1.10;;;24.40;72.10;23.30;99835;;;;597868;238;24087;-79
2022/05/22 04:48:38;;;;;;;2.40;1.60;;;24.70;69.80;23.40;99841;;;;598162;235;24063;-79
2022/05/22 04:51:03;;;;;;;1.43;1.30;;;24.80;68.00;23.90;99846;;;;597289;240;23105;-79
2022/05/22 04:53:31;;;;;;;1.30;1.30;;;25.10;66.60;24.20;99841;;;;597983;238;24084;-77
2022/05/22 04:55:59;;;;;;;1.57;1.40;;;25.50;64.70;24.40;99847;;;;597644;238;23075;-76
2022/05/22 04:58:27;;;;;;;4.73;1.40;;;25.70;63.40;24.80;99848;;;;597799;238;24027;-82
2022/05/22 05:00:55;;;;;;;1.40;1.30;;;26.00;62.80;25.50;99858;;;;597665;234;23064;-78
2022/05/22 05:03:23;;;;;;;1.63;1.20;;;26.60;60.60;25.70;99861;;;;598213;238;24065;-79
2022/05/22 05:05:53;;;;;;;1.47;1.37;;;26.80;59.10;25.60;99863;;;;597829;235;24074;-77
2022/05/22 05:08:24;;;;;;;1.60;1.43;;;26.80;58.50;26.10;99874;;;;599682;237;23106;-81
2022/05/22 05:10:52;;;;;;;2.57;1.60;;;27.20;58.60;26.80;99875;;;;598440;240;23065;-83
2022/05/22 05:13:17;;;;;;;1.40;1.30;;;27.90;56.90;26.80;99877;;;;598860;240;23139;-79
2022/05/22 05:15:45;;;;;;;1.60;1.40;;;28.10;55.90;26.50;99887;;;;598723;238;23063;-81
2022/05/22 05:18:13;;;;;;;1.57;1.47;;;27.80;55.70;26.40;99890;;;;598477;240;23079;-83
2022/05/22 05:20:41;;;;;;;3.17;1.30;;;27.60;56.40;26.60;99891;;;;598408;240;23032;-80
2022/05/22 05:23:08;;;;;;;1.70;1.60;;;27.70;55.80;25.30;99881;;;;598657;240;24006;-80
2022/05/22 05:25:36;;;;;;;1.60;1.50;;;26.70;56.20;24.30;99893;;;;598009;238;24058;-81
2022/05/22 05:28:08;;;;;;;4.93;1.93;;;25.70;58.40;24.10;99888;;;;598339;238;23056;-76
2022/05/22 05:30:32;;;;;;;1.80;1.70;;;25.30;58.90;23.30;99890;;;;600282;238;24064;-78
2022/05/22 05:33:04;;;;;;;4.07;2.07;;;23.80;62.80;22.80;99883;;;;600768;239;23056;-78
2022/05/22 05:35:29;;;;;;;2.27;1.47;;;23.80;62.70;22.10;99886;;;;598970;238;24041;-80
2022/05/22 05:37:56;;;;;;;1.80;1.70;;;23.10;64.70;21.80;99893;;;;598845;239;24034;-77
2022/05/22 05:40:24;;;;;;;1.90;1.80;;;22.70;65.40;20.80;99892;;;;598046;238;24038;-83
2022/05/22 05:42:52;;;;;;;2.03;1.60;;;21.90;66.70;19.70;99896;;;;598538;238;24047;-81
2022/05/22 05:45:21;;;;;;;2.10;1.90;;;19.80;72.70;18.70;99898;;;;597849;238;23073;-79
2022/05/22 05:47:49;;;;;;;3.83;1.50;;;19.80;72.70;18.00;99896;;;;598336;238;24061;-82
2022/05/22 05:50:21;;;;;;;2.27;1.73;;;19.00;75.70;17.30;99896;;;;598338;238;24046;-83
2022/05/22 05:52:46;;;;;;;1.87;1.77;;;18.30;78.40;16.60;99895;;;;598878;240;24072;-81
2022/05/22 05:55:14;;;;;;;2.70;1.90;;;17.60;80.60;15.80;99895;;;;598499;238;24051;-77
2022/05/22 05:57:41;;;;;;;1.53;1.43;;;16.80;83.30;15.30;99897;;;;598683;238;24026;-76
2022/05/22 06:00:09;;;;;;;2.63;1.57;;;16.20;86.70;14.80;99897;;;;598652;238;24046;-80
2022/05/22 06:02:37;;;;;;;2.60;1.80;;;15.60;89.90;14.40;99902;;;;598754;240;24062;-78
2022/05/22 06:05:05;;;;;;;1.33;1.23;;;15.20;91.60;13.90;99906;;;;597554;238;24157;-76
2022/05/22 06:07:34;;;;;;;6.00;1.90;;;14.70;93.40;13.60;99914;;;;597834;238;24062;-77
2022/05/22 06:10:05;;;;;;;10.70;3.77;;;14.30;95.90;13.20;99906;;;;598416;238;24030;-79
2022/05/22 06:12:34;;;;;;;8.63;4.70;;;13.90;98.70;13.00;99923;;;;598407;235;24049;-82
2022/05/22 06:15:02;;;;;;;3.63;1.80;;;13.70;99.90;12.80;99922;;;;599242;238;24072;-80
2022/05/22 06:17:32;;;;;;;2.50;1.87;;;13.50;99.90;12.50;99920;;;;598610;238;24030;-77
2022/05/22 06:20:00;;;;;;;4.10;1.70;;;13.10;99.90;12.20;99917;;;;600227;239;24041;-75
2022/05/22 06:22:28;;;;;;;1.10;1.10;;;12.90;99.90;12.10;99922;;;;599694;238;24062;-82
2022/05/22 06:24:57;;;;;;;3.97;1.90;;;12.80;99.90;12.00;99931;;;;599401;240;24033;-79
2022/05/22 06:27:24;;;;;;;1.77;1.67;;;12.60;99.90;11.90;99934;;;;599141;238;24125;-89
2022/05/22 06:29:52;;;;;;;2.10;1.47;;;12.50;99.90;11.90;99928;;;;599804;238;24042;-82
2022/05/22 06:32:23;;;;;;;2.40;2.03;;;12.50;99.90;11.80;99935;;;;599090;238;24050;-77
2022/05/22 06:34:48;;;;;;;7.70;2.00;;;12.40;99.90;11.80;99940;;;;598336;240;24040;-76
2022/05/22 06:37:16;;;;;;;1.60;1.50;;;12.40;99.90;11.70;99939;;;;597585;235;24061;-75
2022/05/22 06:39:50;;;;;;;3.67;1.60;;;12.40;99.90;11.60;99945;;;;597494;240;24148;-75
2022/05/22 06:42:30;;;;;;;2.90;2.03;;;12.20;99.90;11.40;99942;;;;598261;238;24081;-76
2022/05/22 06:45:04;;;;;;;6.53;2.13;;;12.00;99.90;11.30;99946;;;;597867;238;24082;-76
2022/05/22 06:47:32;;;;;;;2.73;2.10;;;12.00;99.90;11.20;99935;;;;597310;240;24038;-76
2022/05/22 06:50:04;;;;;;;2.33;1.40;;;11.90;99.90;11.20;99947;;;;598639;238;24073;-79
2022/05/22 06:52:28;;;;;;;4.30;2.00;;;11.90;99.90;11.20;99937;;;;598231;240;24041;-82
2022/05/22 06:54:56;;;;;;;7.43;3.40;;;11.90;99.90;11.30;99936;;;;598578;238;24073;-82
2022/05/22 06:57:24;;;;;;;2.60;2.40;;;11.90;99.90;11.40;99925;;;;598393;238;24042;-83
2022/05/22 06:59:53;;;;;;;5.40;2.20;;;12.20;99.90;11.60;99927;;;;598608;238;24081;-81
2022/05/22 07:02:20;;;;;;;2.50;1.53;;;12.20;99.90;11.70;99927;;;;597874;240;24069;-82
2022/05/22 07:04:48;;;;;;;1.93;1.67;;;12.40;99.90;11.80;99921;;;;598692;238;24089;-82
2022/05/22 07:07:16;;;;;;;3.97;1.33;;;12.50;99.90;12.00;99921;;;;598229;235;24111;-84
2022/05/22 07:09:44;;;;;;;3.53;1.40;;;12.60;99.90;12.20;99928;;;;598152;238;24042;-83
2022/05/22 07:12:12;;;;;;;2.97;2.00;;;12.80;99.90;12.40;99933;;;;592287;238;45322;-83
2022/05/22 07:14:41;;;;;;;4.12;1.90;;;13.30;99.90;12.70;99933;;;;592948;238;34900;-85
2022/05/22 07:17:08;;;;;;;2.27;1.60;;;13.30;99.90;12.90;99933;;;;598240;238;24009;-79
2022/05/22 07:19:37;;;;;;;2.27;1.70;;;13.50;99.90;13.20;99929;;;;598896;236;24059;-84
2022/05/22 07:22:07;;;;;;;1.70;1.60;;;13.80;99.90;13.30;99934;;;;598416;235;24050;-84
2022/05/22 07:24:41;;;;;;;2.40;1.60;;;14.00;99.90;13.60;99928;;;;598854;235;24078;-81
2022/05/22 07:27:09;;;;;;;3.20;1.90;;;14.50;99.90;13.90;99933;;;;598130;240;24066;-81
2022/05/22 07:29:34;;;;;;;1.53;1.43;;;14.50;99.90;14.00;99930;;;;599079;238;24072;-78
2022/05/22 07:32:02;;;;;;;1.80;1.70;;;14.70;99.90;14.10;99935;;;;600132;237;23987;-81
2022/05/22 07:34:30;;;;;;;2.07;1.67;;;14.80;99.90;14.20;99941;;;;594063;242;24277;-77
2022/05/22 07:36:59;;;;;;;2.33;1.63;;;14.90;99.90;14.20;99939;;;;598070;240;24048;-82
2022/05/22 07:39:30;;;;;;;3.60;1.60;;;14.90;99.90;14.30;99948;;;;599105;240;23993;-85
2022/05/22 07:41:55;;;;;;;2.57;1.57;;;14.90;99.90;14.30;99942;;;;598876;240;24059;-81
2022/05/22 07:44:23;;;;;;;3.90;1.60;;;15.00;99.90;14.40;99944;;;;599260;235;24060;-83
2022/05/22 07:46:50;;;;;;;2.53;1.77;;;15.00;99.90;14.50;99938;;;;598801;238;24054;-81
2022/05/22 07:52:04;;;;;;;1.63;1.53;;;15.40;99.90;15.10;99943;;;;598028;240;24033;-82
2022/05/22 07:54:34;;;;;;;2.20;1.70;;;15.70;99.90;15.40;99947;;;;597716;240;24042;-80
2022/05/22 07:57:02;;;;;;;3.50;1.67;;;16.00;99.90;15.60;99946;;;;598725;240;24034;-79
2022/05/22 07:59:31;;;;;;;2.73;1.50;;;16.20;99.90;15.50;99952;;;;598626;238;24086;-76
2022/05/22 08:01:59;;;;;;;1.80;1.50;;;16.20;99.90;15.50;99947;;;;597449;240;24044;-76
2022/05/22 08:04:28;;;;;;;2.00;1.47;;;16.20;99.90;15.50;99947;;;;598787;238;24039;-82
2022/05/22 08:06:58;;;;;;;2.60;1.50;;;16.20;99.90;15.40;99955;;;;599157;235;24061;-80
2022/05/22 08:09:29;;;;;;;4.10;1.97;;;16.10;99.90;15.40;99950;;;;598760;238;24048;-81
2022/05/22 08:11:54;;;;;;;2.63;1.37;;;16.10;99.90;15.40;99947;;;;597357;240;24041;-79
2022/05/22 08:14:23;;;;;;;1.53;1.43;;;16.00;99.90;15.30;99941;;;;597932;238;24038;-78
2022/05/22 08:16:53;;;;;;;3.47;1.57;;;16.00;99.90;15.20;99945;;;;599036;235;24030;-76
2022/05/22 08:19:19;;;;;;;2.10;1.90;;;15.90;99.90;15.30;99946;;;;598427;240;24034;-77
2022/05/22 08:21:47;;;;;;;2.70;1.90;;;16.00;99.90;15.50;99957;;;;599158;235;24110;-84
2022/05/22 08:24:15;;;;;;;1.93;1.27;;;16.10;99.90;15.60;99944;;;;598500;235;24042;-77
2022/05/22 08:26:44;;;;;;;3.43;1.60;;;16.30;99.90;15.70;99952;;;;599098;236;24038;-81
2022/05/22 08:29:12;;;;;;;1.50;1.40;;;16.20;99.90;15.70;99953;;;;598842;238;24034;-79
2022/05/22 08:31:41;;;;;;;3.70;1.60;;;16.40;99.90;15.80;99957;;;;598406;238;24041;-79
2022/05/22 08:34:09;;;;;;;3.07;1.63;;;16.40;99.90;16.00;99959;;;;598849;238;25265;-77
2022/05/22 08:36:41;;;;;;;1.50;1.40;;;16.60;99.90;16.20;99964;;;;597916;238;24156;-77
2022/05/22 08:39:05;;;;;;;1.43;1.33;;;16.80;99.90;16.30;99965;;;;597790;240;24030;-76
2022/05/22 08:41:33;;;;;;;1.90;1.60;;;16.90;99.90;16.40;99963;;;;598610;238;24107;-77
2022/05/22 08:44:07;;;;;;;3.10;1.70;;;17.00;99.90;16.30;99961;;;;598594;240;24033;-82
2022/05/22 08:46:37;;;;;;;1.77;1.63;;;17.00;99.90;16.40;99964;;;;599157;240;24053;-83
2022/05/22 08:49:17;;;;;;;1.87;1.27;;;17.00;99.90;16.50;99969;;;;596590;240;24061;-81
2022/05/22 08:51:46;;;;;;;2.80;1.77;;;17.10;99.90;16.50;99973;;;;591315;240;24058;-76
2022/05/22 08:54:16;;;;;;;5.47;1.80;;;17.10;99.90;16.30;99969;;;;597974;240;24100;-76
2022/05/22 08:59:30;;;;;;;1.50;1.37;;;16.70;99.90;15.60;99975;;;;598007;240;24062;-77
2022/05/22 09:02:05;;;;;;;2.53;1.77;;;16.10;99.90;15.40;99973;;;;597670;238;24088;-81
2022/05/22 09:04:42;;;;;;;2.43;1.63;;;16.10;99.90;15.10;99964;;;;598268;238;24067;-81
2022/05/22 09:07:43;;;;;;;3.13;1.20;;;15.90;99.90;15.00;99971;;;;598058;235;24093;-79
2022/05/22 09:10:18;;;;;;;2.40;1.40;;;15.50;99.90;14.90;99978;;;;592422;242;24048;-76
2022/05/22 09:13:07;;;;;;;4.13;1.50;;;15.50;99.90;14.80;99971;;;;590897;241;24073;-77
2022/05/22 09:15:44;;;;;;;3.80;1.77;;;15.50;99.90;14.70;99977;;;;590068;242;24068;-80
2022/05/22 09:18:33;;;;;;;2.87;1.60;;;15.30;99.90;14.60;99977;;;;590290;243;24103;-76
2022/05/22 09:21:15;;;;;;;2.40;1.60;;;15.20;99.90;14.50;99976;;;;590479;243;24086;-75
2022/05/22 09:23:58;;;;;;;3.00;1.53;;;15.10;99.90;14.40;99984;;;;589552;243;24126;-77
2022/05/22 09:26:50;;;;;;;6.43;1.87;;;15.00;99.90;14.30;99989;;;;590120;243;24057;-76
2022/05/22 09:29:39;;;;;;;1.53;1.43;;;14.90;99.90;14.10;99983;;;;590330;243;24062;-83
2022/05/22 09:32:26;;;;;;;3.63;2.20;;;14.70;99.90;14.10;99984;;;;588816;243;24081;-84
2022/05/22 09:35:21;;;;;;;5.83;1.73;;;14.70;99.90;14.10;99987;;;;590909;243;24048;-84
2022/05/22 09:38:07;;;;;;;2.53;2.00;;;14.60;99.90;14.00;100000;;;;590930;243;24053;-80
2022/05/22 09:40:41;;;;;;;1.80;1.70;;;14.60;99.90;13.90;99990;;;;589634;243;24062;-80
2022/05/22 09:43:36;;;;;;;4.03;2.30;;;14.50;99.90;13.80;99994;;;;590428;243;24018;-81
2022/05/22 09:46:16;;;;;;;1.93;1.77;;;14.40;99.90;13.80;100002;;;;591135;243;24054;-80
2022/05/22 09:49:01;;;;;;;2.13;1.80;;;14.40;99.90;13.70;100004;;;;590618;242;24071;-83
2022/05/22 09:51:50;;;;;;;4.17;1.60;;;14.40;99.90;13.70;100013;;;;589938;243;24042;-83
2022/05/22 09:54:30;;;;;;;6.47;1.93;;;14.30;99.90;13.80;100018;;;;594894;238;24030;-79
2022/05/22 09:57:28;;;;;;;6.07;1.80;;;14.40;99.90;13.80;100011;;;;597540;240;24085;-78
2022/05/22 10:00:17;;;;;;;4.07;1.80;;;14.40;99.90;13.70;100011;;;;597942;240;24082;-78
2022/05/22 10:03:03;;;;;;;4.77;1.63;;;14.30;99.90;13.50;100019;;;;597462;239;24048;-77
2022/05/22 10:05:54;;;;;;;2.20;1.60;;;14.10;99.90;13.50;100019;;;;598052;240;24063;-79
2022/05/22 10:08:31;;;;;;;3.60;2.10;;;14.10;99.90;13.40;100020;;;;597835;239;24034;-77
2022/05/22 10:11:26;;;;;;;2.50;1.80;;;14.10;99.90;13.30;100030;;;;593234;239;24110;-77
2022/05/22 10:14:12;;;;;;;5.13;2.07;;;14.00;99.90;13.20;100044;;;;598475;239;24041;-76
2022/05/22 10:17:23;;;;;;;3.90;2.07;;;13.90;99.90;13.00;100046;;;;599144;238;24047;-77
2022/05/22 10:20:03;;;;;;;2.50;1.57;;;13.70;99.90;12.90;100036;;;;599068;238;24105;-76
2022/05/22 10:22:49;;;;;;;2.80;1.80;;;13.60;99.90;12.90;100027;;;;598564;239;24068;-77
2022/05/22 10:25:57;;;;;;;1.93;1.43;;;13.50;99.90;12.90;100032;;;;597422;240;24123;-77
2022/05/22 10:28:34;;;;;;;2.57;1.60;;;13.50;99.90;12.90;100035;;;;595933;240;24060;-77
2022/05/22 10:31:27;;;;;;;1.63;1.50;;;13.50;99.90;12.90;100031;;;;598024;240;24054;-77
2022/05/22 10:34:21;;;;;;;1.73;1.63;;;13.50;99.90;12.80;100041;;;;597781;240;24042;-78
2022/05/22 10:36:49;;;;;;;3.13;1.73;;;13.50;99.90;12.80;100041;;;;590227;239;24051;-76
2022/05/22 10:39:20;;;;;;;3.10;1.40;;;13.40;99.90;12.70;100040;;;;597757;240;24036;-78
2022/05/22 10:44:39;;;;;;;1.97;1.87;;;13.40;99.90;12.70;100044;;;;592700;242;24051;-80
2022/05/22 10:47:07;;;;;;;2.50;1.90;;;13.40;99.90;12.80;100037;;;;563961;252;24098;-82
2022/05/22 10:49:44;;;;;;;3.93;2.67;;;13.50;99.90;13.00;100052;;;;569437;251;24099;-76
2022/05/22 10:52:12;;;;;;;3.57;2.17;;;13.60;99.90;13.00;100042;;;;592588;243;24130;-76
2022/05/22 10:54:50;;;;;;;3.27;2.30;;;13.70;99.90;13.00;100055;;;;591970;242;24063;-76
2022/05/22 10:57:17;;;;;;;4.13;2.40;;;13.70;99.90;13.00;100054;;;;591938;241;24032;-76
2022/05/22 10:59:49;;;;;;;3.13;2.47;;;13.70;99.90;13.10;100055;;;;591056;243;24037;-75
2022/05/22 11:02:25;;;;;;;4.13;2.17;;;13.70;99.90;13.10;100060;;;;590346;242;24051;-79
2022/05/22 11:04:56;;;;;;;2.70;2.37;;;13.70;99.90;13.10;100061;;;;585720;242;24032;-77
2022/05/22 11:07:30;;;;;;;3.03;2.30;;;13.80;99.90;13.10;100062;;;;592048;241;24040;-79
2022/05/22 11:09:57;;;;;;;2.37;2.10;;;13.70;99.90;12.90;100057;;;;591624;242;24036;-80
2022/05/22 11:12:25;;;;;;;3.30;1.97;;;13.60;99.90;12.90;100062;;;;589881;243;24052;-77
2022/05/22 11:15:07;;;;;;;2.10;1.80;;;13.50;99.90;12.90;100061;;;;599310;240;24037;-83
2022/05/22 11:17:34;;;;;;;3.77;2.30;;;13.50;99.90;12.80;100060;;;;598390;239;24015;-78
2022/05/22 11:20:02;;;;;;;2.43;1.87;;;13.50;99.90;12.90;100063;;;;598371;240;24082;-84
2022/05/22 11:23:11;;;;;;;2.53;1.67;;;13.60;99.90;13.10;100070;;;;597203;240;24029;-84
2022/05/22 11:26:01;;;;;;;5.77;1.87;;;13.70;99.90;13.10;100082;;;;597051;240;24037;-85
2022/05/22 11:28:31;;;;;;;3.53;2.33;;;13.70;99.90;13.10;100068;;;;596780;240;24027;-77
2022/05/22 11:31:31;;;;;;;2.73;1.97;;;13.80;99.90;13.20;100075;;;;597718;235;24035;-75
2022/05/22 11:34:20;;;;;;;3.77;1.57;;;13.80;99.90;13.20;100076;;;;598183;239;24030;-83
2022/05/22 11:37:09;;;;;;;2.37;1.93;;;13.90;99.90;13.20;100082;;;;597885;240;24048;-82
2022/05/22 11:39:57;;;;;;;3.40;1.90;;;13.80;99.90;13.20;100082;;;;597837;239;24034;-84
2022/05/22 11:42:35;;;;;;;3.53;2.07;;;13.90;99.90;13.20;100087;;;;591853;242;24047;-83
2022/05/22 11:45:17;;;;;;;1.90;1.80;;;13.80;99.90;13.30;100095;;;;590170;243;24049;-85
2022/05/22 11:48:22;;;;;;;2.77;2.00;;;14.00;99.90;13.60;100092;;;;589896;243;24037;-83
2022/05/22 11:51:23;;;;;;;2.37;1.70;;;14.40;99.90;13.70;100104;;;;589959;243;24115;-84
2022/05/22 11:54:22;;;;;;;2.47;1.87;;;14.30;99.90;13.80;100100;;;;589982;243;24029;-84
2022/05/22 11:56:56;;;;;;;4.10;2.07;;;14.50;99.90;13.80;100095;;;;590099;243;24042;-84
2022/05/22 11:59:54;;;;;;;3.03;1.77;;;14.50;99.90;13.80;100093;;;;589146;243;24068;-85